Airfield :
LOGIN :

Register | Disclaimer

   EN    FR    IT 

 










Legend :    VFR   Marginal VFR   IFR   Intensive IFR   Very Intensive IFR
Visi :
Ceiling :
>= 8 km
>= 3000ft
5 to 8 km
1000 to 3000 ft
1500m to 5 km
500 to 1000 ft
800 to 1500m
200 to 500 ft
< 800m
< 200 ft
Symbols :   Thunderstorms  Fog  Heavy snow  Heavy precipitations  Wind > 20 kt
SIGMETs :     Misc.  Thunderstorms  Icing  Turbulence  Mountain Waves  Volcanic Ashes







- Airport Elevation : 2265 ft
- IATA code : CZL


DABC - Mohamed Boudiaf Int. Constantine

CURRENT METAR :
  • 251800Z 06008KT 9999 FEW030 BKN200 22/08 Q1011

EXPIRED METARs :
  • 251730Z 04010KT 9999 FEW026 BKN200 23/08 Q1011
  • 251700Z 04012KT 9999 FEW026 BKN200 23/08 Q1011
  • 251630Z 04011KT 9999 FEW026 BKN200 24/08 Q1011
  • 251600Z 01008KT 9999 FEW026 SCT200 26/06 Q1011
  • 251530Z 35007KT 310V030 9999 FEW026 SCT200 27/05 Q1011

TAF TAF DABC
Valid from the 25 at 18:00 until the 26 at 18:00 UTC


251700Z 2518/2618 04010KT CAVOK
PROB40
TEMPO 2518/2522 FEW030TCU
BECMG 2520/2522 VRB02KT
BECMG 2609/2612 22010KT FEW030TCU
TEMPO 2612/2618 5000 -TSRA SCT026CB
No reported NOTAMs for that airfield.
1 SIGMET reported for the Alger FIR (DAAA) :
 
Embedded thunderstorms
DAAA SIGMET 2 VALID 251800/252200 DAMM
DAAA ALGIERS FIR ISOL EMBD TS FCST WI N3616 E00404 - N3452 E00433 - N3348 E00347 - N3316 E00103 - N3337 W00044 - N3536 E00025 - N3616 E00404 TOP FL180 MOV NE NC=



MET'MAP, your aeronautical weather chart ! - Copyright ORBIFLY December 2007 - Disclaimer

ORBIFLY MET'MAP TEAM :

Programming & Development : Alexandra Zaïnal
Concept & Development : Baudouin d'Aumeries
Co-Development & Prog : Marc-Olivier Méhu
Technical & hardware support : Manuel Goepfert

Contact : metmap@orbifly.com




SOURCES & CREDITS :

   NOAA